sensor_id;sensor_type;location;lat;lon;timestamp;pressure;altitude;pressure_sealevel;temperature;humidity
50250;BME280;36133;42.522;27.456;2023-03-07T00:00:01;100846.41;;;10.61;56.72
50250;BME280;36133;42.522;27.456;2023-03-07T00:02:27;100737.09;;;10.57;55.46
50250;BME280;36133;42.522;27.456;2023-03-07T00:04:53;100616.41;;;8.40;60.81
50250;BME280;36133;42.522;27.456;2023-03-07T00:07:18;100796.50;;;10.42;58.93
50250;BME280;36133;42.522;27.456;2023-03-07T00:09:44;100596.69;;;9.39;58.41
50250;BME280;36133;42.522;27.456;2023-03-07T00:12:09;100743.97;;;10.74;57.12
50250;BME280;36133;42.522;27.456;2023-03-07T00:14:35;100809.97;;;11.16;55.71
50250;BME280;36133;42.522;27.456;2023-03-07T00:17:01;100771.25;;;10.65;57.20
50250;BME280;36133;42.522;27.456;2023-03-07T00:19:27;100672.84;;;10.08;57.67
50250;BME280;36133;42.522;27.456;2023-03-07T00:21:53;100840.13;;;11.34;56.73
50250;BME280;36133;42.522;27.456;2023-03-07T00:24:18;100724.13;;;9.25;60.82
50250;BME280;36133;42.522;27.456;2023-03-07T00:26:44;100699.81;;;10.08;58.21
50250;BME280;36133;42.522;27.456;2023-03-07T00:29:10;100832.25;;;10.89;58.25
50250;BME280;36133;42.522;27.456;2023-03-07T00:31:35;100820.53;;;10.81;58.09
50250;BME280;36133;42.522;27.456;2023-03-07T00:34:02;100663.03;;;9.92;57.83
50250;BME280;36133;42.522;27.456;2023-03-07T00:36:28;100749.84;;;9.96;59.96
50250;BME280;36133;42.522;27.456;2023-03-07T00:38:53;100640.69;;;9.31;59.56
50250;BME280;36133;42.522;27.456;2023-03-07T00:41:24;100711.84;;;9.45;60.49
50250;BME280;36133;42.522;27.456;2023-03-07T00:43:51;100703.78;;;9.83;59.53
50250;BME280;36133;42.522;27.456;2023-03-07T00:46:18;100793.94;;;10.26;60.30
50250;BME280;36133;42.522;27.456;2023-03-07T00:48:44;100603.84;;;9.09;60.73
50250;BME280;36133;42.522;27.456;2023-03-07T00:51:11;100809.69;;;11.47;57.43
50250;BME280;36133;42.522;27.456;2023-03-07T00:53:38;100806.16;;;10.96;58.79
50250;BME280;36133;42.522;27.456;2023-03-07T00:56:04;100777.41;;;10.44;60.24
50250;BME280;36133;42.522;27.456;2023-03-07T00:58:33;100774.81;;;10.13;60.35
50250;BME280;36133;42.522;27.456;2023-03-07T01:00:59;100551.00;;;8.39;62.40
50250;BME280;36133;42.522;27.456;2023-03-07T01:03:26;100801.72;;;10.21;62.44
50250;BME280;36133;42.522;27.456;2023-03-07T01:05:53;100781.31;;;9.81;63.62
50250;BME280;36133;42.522;27.456;2023-03-07T01:08:19;100725.78;;;10.09;61.44
50250;BME280;36133;42.522;27.456;2023-03-07T01:10:45;100711.84;;;10.20;61.06
50250;BME280;36133;42.522;27.456;2023-03-07T01:13:13;100545.38;;;9.32;61.04
50250;BME280;36133;42.522;27.456;2023-03-07T01:15:39;100798.63;;;10.76;61.35
50250;BME280;36133;42.522;27.456;2023-03-07T01:18:07;100761.28;;;9.98;61.93
50250;BME280;36133;42.522;27.456;2023-03-07T01:20:35;100763.53;;;10.09;61.73
50250;BME280;36133;42.522;27.456;2023-03-07T01:26:24;100753.66;;;10.02;61.42
50250;BME280;36133;42.522;27.456;2023-03-07T01:28:52;100737.69;;;10.15;61.10
50250;BME280;36133;42.522;27.456;2023-03-07T01:31:18;100690.81;;;9.18;63.01
50250;BME280;36133;42.522;27.456;2023-03-07T01:33:46;100722.78;;;9.66;62.47
50250;BME280;36133;42.522;27.456;2023-03-07T01:36:41;100772.38;;;10.55;59.73
50250;BME280;36133;42.522;27.456;2023-03-07T01:39:12;100730.75;;;10.50;58.68
50250;BME280;36133;42.522;27.456;2023-03-07T01:41:39;100722.88;;;10.11;59.52
50250;BME280;36133;42.522;27.456;2023-03-07T01:44:17;100602.09;;;9.16;60.73
50250;BME280;36133;42.522;27.456;2023-03-07T01:46:49;100701.88;;;9.68;61.97
50250;BME280;36133;42.522;27.456;2023-03-07T01:49:27;100784.63;;;10.28;62.15
50250;BME280;36133;42.522;27.456;2023-03-07T01:55:24;100605.88;;;9.97;59.54
50250;BME280;36133;42.522;27.456;2023-03-07T02:01:13;100650.31;;;10.60;58.45
50250;BME280;36133;42.522;27.456;2023-03-07T02:03:52;100711.88;;;11.01;58.62
50250;BME280;36133;42.522;27.456;2023-03-07T02:06:19;100772.47;;;10.92;58.71
50250;BME280;36133;42.522;27.456;2023-03-07T02:08:47;100562.13;;;8.82;60.83
50250;BME280;36133;42.522;27.456;2023-03-07T02:11:14;100697.75;;;9.12;61.63
50250;BME280;36133;42.522;27.456;2023-03-07T02:13:40;100777.22;;;9.39;61.80
50250;BME280;36133;42.522;27.456;2023-03-07T02:16:05;100719.63;;;8.86;62.94
50250;BME280;36133;42.522;27.456;2023-03-07T02:18:35;100673.19;;;9.07;61.02
50250;BME280;36133;42.522;27.456;2023-03-07T02:21:37;100781.50;;;9.33;61.81
50250;BME280;36133;42.522;27.456;2023-03-07T02:26:45;100589.78;;;8.06;61.60
50250;BME280;36133;42.522;27.456;2023-03-07T02:29:12;100724.06;;;8.71;62.38
50250;BME280;36133;42.522;27.456;2023-03-07T02:31:38;100531.94;;;7.71;62.09
50250;BME280;36133;42.522;27.456;2023-03-07T02:34:20;100630.03;;;8.38;61.45
50250;BME280;36133;42.522;27.456;2023-03-07T02:36:47;100689.94;;;8.94;61.04
50250;BME280;36133;42.522;27.456;2023-03-07T02:39:14;100705.53;;;8.37;62.65
50250;BME280;36133;42.522;27.456;2023-03-07T02:41:40;100697.50;;;8.99;60.37
50250;BME280;36133;42.522;27.456;2023-03-07T02:44:05;100567.59;;;8.04;61.24
50250;BME280;36133;42.522;27.456;2023-03-07T02:46:31;100376.25;;;6.91;61.10
50250;BME280;36133;42.522;27.456;2023-03-07T02:48:56;100581.34;;;8.17;59.95
50250;BME280;36133;42.522;27.456;2023-03-07T02:51:21;100617.31;;;8.16;61.44
50250;BME280;36133;42.522;27.456;2023-03-07T02:53:47;100546.19;;;7.79;61.65
50250;BME280;36133;42.522;27.456;2023-03-07T02:56:13;100556.00;;;7.56;62.47
50250;BME280;36133;42.522;27.456;2023-03-07T02:58:39;100774.38;;;8.70;63.35
50250;BME280;36133;42.522;27.456;2023-03-07T03:01:04;100540.63;;;7.09;64.11
50250;BME280;36133;42.522;27.456;2023-03-07T03:03:30;100755.50;;;8.78;63.28
50250;BME280;36133;42.522;27.456;2023-03-07T03:05:56;100504.38;;;7.13;63.34
50250;BME280;36133;42.522;27.456;2023-03-07T03:08:21;100509.72;;;7.21;63.58
50250;BME280;36133;42.522;27.456;2023-03-07T03:10:53;100739.66;;;8.28;65.27
50250;BME280;36133;42.522;27.456;2023-03-07T03:13:20;100742.69;;;8.41;64.51
50250;BME280;36133;42.522;27.456;2023-03-07T03:15:45;100532.56;;;7.09;64.99
50250;BME280;36133;42.522;27.456;2023-03-07T03:18:11;100621.13;;;8.30;63.57
50250;BME280;36133;42.522;27.456;2023-03-07T03:20:40;100624.22;;;8.10;64.35
50250;BME280;36133;42.522;27.456;2023-03-07T03:23:06;100616.66;;;8.06;63.20
50250;BME280;36133;42.522;27.456;2023-03-07T03:25:32;100605.25;;;7.40;64.60
50250;BME280;36133;42.522;27.456;2023-03-07T03:27:57;100786.72;;;8.32;66.99
50250;BME280;36133;42.522;27.456;2023-03-07T03:30:23;100580.41;;;7.30;66.96
50250;BME280;36133;42.522;27.456;2023-03-07T03:32:48;100771.53;;;8.64;66.77
50250;BME280;36133;42.522;27.456;2023-03-07T03:35:14;100777.94;;;8.63;66.47
50250;BME280;36133;42.522;27.456;2023-03-07T03:37:40;100743.78;;;8.63;65.77
50250;BME280;36133;42.522;27.456;2023-03-07T03:40:06;100763.00;;;8.60;65.57
50250;BME280;36133;42.522;27.456;2023-03-07T03:42:39;100730.34;;;8.63;65.45
50250;BME280;36133;42.522;27.456;2023-03-07T03:45:06;100487.63;;;6.87;65.96
50250;BME280;36133;42.522;27.456;2023-03-07T03:47:32;100656.53;;;7.86;67.07
50250;BME280;36133;42.522;27.456;2023-03-07T03:49:57;100530.91;;;7.16;66.43
50250;BME280;36133;42.522;27.456;2023-03-07T03:52:22;100691.25;;;8.20;66.16
50250;BME280;36133;42.522;27.456;2023-03-07T03:54:48;100765.88;;;8.90;65.89
50250;BME280;36133;42.522;27.456;2023-03-07T03:57:14;100674.88;;;8.46;65.62
50250;BME280;36133;42.522;27.456;2023-03-07T03:59:45;100737.22;;;8.66;65.52
50250;BME280;36133;42.522;27.456;2023-03-07T04:02:10;100503.16;;;7.32;65.63
50250;BME280;36133;42.522;27.456;2023-03-07T04:07:59;100755.28;;;8.49;67.24
50250;BME280;36133;42.522;27.456;2023-03-07T04:13:52;100458.16;;;7.34;65.61
50250;BME280;36133;42.522;27.456;2023-03-07T04:19:40;100752.16;;;9.38;64.84
50250;BME280;36133;42.522;27.456;2023-03-07T04:22:05;100649.97;;;8.83;63.53
50250;BME280;36133;42.522;27.456;2023-03-07T04:24:31;100548.06;;;8.10;64.73
50250;BME280;36133;42.522;27.456;2023-03-07T04:26:56;100712.50;;;9.47;63.15
50250;BME280;36133;42.522;27.456;2023-03-07T04:29:22;100745.97;;;9.76;62.81
50250;BME280;36133;42.522;27.456;2023-03-07T04:31:47;100733.66;;;9.96;61.77
50250;BME280;36133;42.522;27.456;2023-03-07T04:34:13;100753.09;;;9.68;62.35
50250;BME280;36133;42.522;27.456;2023-03-07T04:36:38;100362.84;;;7.61;61.45
50250;BME280;36133;42.522;27.456;2023-03-07T04:39:04;100746.84;;;10.28;61.24
50250;BME280;36133;42.522;27.456;2023-03-07T04:41:29;100657.31;;;10.10;60.38
50250;BME280;36133;42.522;27.456;2023-03-07T04:43:55;100656.88;;;10.36;59.23
50250;BME280;36133;42.522;27.456;2023-03-07T04:46:20;100574.81;;;9.86;59.02
50250;BME280;36133;42.522;27.456;2023-03-07T04:48:46;100625.47;;;10.50;58.25
50250;BME280;36133;42.522;27.456;2023-03-07T04:51:12;100458.59;;;9.37;58.45
50250;BME280;36133;42.522;27.456;2023-03-07T04:53:38;100654.16;;;10.36;59.30
50250;BME280;36133;42.522;27.456;2023-03-07T04:56:05;100748.81;;;10.64;59.74
50250;BME280;36133;42.522;27.456;2023-03-07T04:58:32;100675.44;;;10.16;60.32
50250;BME280;36133;42.522;27.456;2023-03-07T05:01:01;100366.59;;;8.29;60.06
50250;BME280;36133;42.522;27.456;2023-03-07T05:03:27;100675.16;;;10.70;58.89
50250;BME280;36133;42.522;27.456;2023-03-07T05:05:53;100384.56;;;9.18;58.00
50250;BME280;36133;42.522;27.456;2023-03-07T05:08:19;100757.78;;;11.52;58.31
50250;BME280;36133;42.522;27.456;2023-03-07T05:10:45;100761.34;;;11.01;59.77
50250;BME280;36133;42.522;27.456;2023-03-07T05:13:11;100712.59;;;10.59;60.35
50250;BME280;36133;42.522;27.456;2023-03-07T05:15:37;100693.09;;;10.04;61.69
50250;BME280;36133;42.522;27.456;2023-03-07T05:18:02;100647.59;;;9.72;62.08
50250;BME280;36133;42.522;27.456;2023-03-07T05:20:28;100720.00;;;9.97;62.36
50250;BME280;36133;42.522;27.456;2023-03-07T05:22:55;100639.94;;;8.69;65.14
50250;BME280;36133;42.522;27.456;2023-03-07T05:25:21;100775.13;;;9.26;66.40
50250;BME280;36133;42.522;27.456;2023-03-07T05:27:46;100647.41;;;8.59;66.01
50250;BME280;36133;42.522;27.456;2023-03-07T05:30:13;100776.25;;;9.09;66.83
50250;BME280;36133;42.522;27.456;2023-03-07T05:32:39;100656.44;;;8.35;67.06
50250;BME280;36133;42.522;27.456;2023-03-07T05:35:06;100780.53;;;9.18;67.29
50250;BME280;36133;42.522;27.456;2023-03-07T05:37:33;100741.47;;;8.91;67.43
50250;BME280;36133;42.522;27.456;2023-03-07T05:39:58;100746.19;;;8.89;67.14
50250;BME280;36133;42.522;27.456;2023-03-07T05:42:24;100569.63;;;7.46;67.99
50250;BME280;36133;42.522;27.456;2023-03-07T05:44:49;100791.34;;;8.71;68.43
50250;BME280;36133;42.522;27.456;2023-03-07T05:47:15;100723.19;;;8.39;68.25
50250;BME280;36133;42.522;27.456;2023-03-07T05:49:40;100674.16;;;8.13;67.42
50250;BME280;36133;42.522;27.456;2023-03-07T05:52:06;100749.19;;;8.94;66.19
50250;BME280;36133;42.522;27.456;2023-03-07T05:54:31;100793.28;;;9.78;64.77
50250;BME280;36133;42.522;27.456;2023-03-07T05:56:57;100715.13;;;9.55;64.37
50250;BME280;36133;42.522;27.456;2023-03-07T05:59:22;100779.22;;;11.17;62.40
50250;BME280;36133;42.522;27.456;2023-03-07T06:01:48;100731.16;;;10.98;60.47
50250;BME280;36133;42.522;27.456;2023-03-07T06:04:13;100784.75;;;12.72;57.22
50250;BME280;36133;42.522;27.456;2023-03-07T06:06:39;100756.75;;;13.40;55.29
50250;BME280;36133;42.522;27.456;2023-03-07T06:09:04;100781.47;;;14.12;52.49
50250;BME280;36133;42.522;27.456;2023-03-07T06:11:32;100711.84;;;13.31;53.55
50250;BME280;36133;42.522;27.456;2023-03-07T06:13:58;100787.03;;;13.51;53.55
50250;BME280;36133;42.522;27.456;2023-03-07T06:16:24;100726.50;;;13.50;53.06
50250;BME280;36133;42.522;27.456;2023-03-07T06:18:49;100690.25;;;12.90;53.02
50250;BME280;36133;42.522;27.456;2023-03-07T06:21:16;100750.13;;;13.69;52.12
50250;BME280;36133;42.522;27.456;2023-03-07T06:23:43;100790.84;;;14.35;51.34
50250;BME280;36133;42.522;27.456;2023-03-07T06:26:08;100800.25;;;15.24;48.74
50250;BME280;36133;42.522;27.456;2023-03-07T06:28:36;100724.28;;;15.67;47.61
50250;BME280;36133;42.522;27.456;2023-03-07T06:31:09;100754.91;;;15.63;47.48
50250;BME280;36133;42.522;27.456;2023-03-07T06:33:36;100790.50;;;16.42;45.90
50250;BME280;36133;42.522;27.456;2023-03-07T06:36:10;100786.34;;;16.58;45.69
50250;BME280;36133;42.522;27.456;2023-03-07T06:38:36;100798.22;;;17.74;42.90
50250;BME280;36133;42.522;27.456;2023-03-07T06:41:02;100744.84;;;17.60;43.02
50250;BME280;36133;42.522;27.456;2023-03-07T06:43:28;100737.63;;;18.19;41.94
50250;BME280;36133;42.522;27.456;2023-03-07T06:45:54;100652.31;;;20.60;37.77
50250;BME280;36133;42.522;27.456;2023-03-07T06:48:19;100787.69;;;22.12;36.02
50250;BME280;36133;42.522;27.456;2023-03-07T06:50:45;100752.28;;;21.13;35.52
50250;BME280;36133;42.522;27.456;2023-03-07T06:53:11;100795.97;;;22.49;35.10
50250;BME280;36133;42.522;27.456;2023-03-07T06:55:36;100566.66;;;22.08;33.05
50250;BME280;36133;42.522;27.456;2023-03-07T06:58:02;100726.47;;;23.36;32.29
50250;BME280;36133;42.522;27.456;2023-03-07T07:00:28;100699.94;;;22.42;32.88
50250;BME280;36133;42.522;27.456;2023-03-07T07:02:53;100673.66;;;20.58;36.63
50250;BME280;36133;42.522;27.456;2023-03-07T07:05:19;100658.25;;;20.35;35.96
50250;BME280;36133;42.522;27.456;2023-03-07T07:07:45;100691.63;;;19.31;38.72
50250;BME280;36133;42.522;27.456;2023-03-07T07:10:11;100738.00;;;17.39;43.53
50250;BME280;36133;42.522;27.456;2023-03-07T07:12:37;100723.22;;;16.61;44.64
50250;BME280;36133;42.522;27.456;2023-03-07T07:15:03;100800.50;;;17.58;43.76
50250;BME280;36133;42.522;27.456;2023-03-07T07:17:31;100745.63;;;16.63;45.48
50250;BME280;36133;42.522;27.456;2023-03-07T07:19:57;100397.09;;;14.60;46.16
50250;BME280;36133;42.522;27.456;2023-03-07T07:22:23;100741.75;;;15.15;48.96
50250;BME280;36133;42.522;27.456;2023-03-07T07:24:49;100734.19;;;15.55;49.26
50250;BME280;36133;42.522;27.456;2023-03-07T07:27:14;100613.84;;;14.97;48.70
50250;BME280;36133;42.522;27.456;2023-03-07T07:29:40;100618.81;;;15.88;46.91
50250;BME280;36133;42.522;27.456;2023-03-07T07:32:06;100732.22;;;17.89;44.42
50250;BME280;36133;42.522;27.456;2023-03-07T07:34:31;100770.81;;;19.09;42.32
50250;BME280;36133;42.522;27.456;2023-03-07T07:37:09;100554.00;;;19.02;40.74
50250;BME280;36133;42.522;27.456;2023-03-07T07:39:34;100687.56;;;19.33;41.30
50250;BME280;36133;42.522;27.456;2023-03-07T07:42:00;100751.72;;;21.86;37.10
50250;BME280;36133;42.522;27.456;2023-03-07T07:44:29;100760.88;;;26.35;31.13
50250;BME280;36133;42.522;27.456;2023-03-07T07:46:55;100764.31;;;25.87;30.42
50250;BME280;36133;42.522;27.456;2023-03-07T07:49:21;100548.56;;;23.15;32.72
50250;BME280;36133;42.522;27.456;2023-03-07T07:51:46;100701.91;;;26.87;29.57
50250;BME280;36133;42.522;27.456;2023-03-07T07:54:12;100758.91;;;30.34;25.57
50250;BME280;36133;42.522;27.456;2023-03-07T07:56:37;100714.06;;;26.67;28.85
50250;BME280;36133;42.522;27.456;2023-03-07T07:59:03;100759.00;;;27.31;28.75
50250;BME280;36133;42.522;27.456;2023-03-07T08:01:28;100749.53;;;29.00;26.71
50250;BME280;36133;42.522;27.456;2023-03-07T08:03:55;100755.31;;;28.11;27.91
50250;BME280;36133;42.522;27.456;2023-03-07T08:06:23;100696.47;;;27.01;28.73
50250;BME280;36133;42.522;27.456;2023-03-07T08:08:50;100755.16;;;24.83;32.02
50250;BME280;36133;42.522;27.456;2023-03-07T08:11:17;100754.75;;;25.75;31.43
50250;BME280;36133;42.522;27.456;2023-03-07T08:13:43;100687.16;;;23.82;33.22
50250;BME280;36133;42.522;27.456;2023-03-07T08:16:12;100730.72;;;24.41;32.95
50250;BME280;36133;42.522;27.456;2023-03-07T08:18:39;100744.50;;;24.05;33.55
50250;BME280;36133;42.522;27.456;2023-03-07T08:21:06;100646.53;;;22.91;34.64
50250;BME280;36133;42.522;27.456;2023-03-07T08:23:33;100612.66;;;22.90;34.69
50250;BME280;36133;42.522;27.456;2023-03-07T08:26:03;100768.22;;;24.52;33.53
50250;BME280;36133;42.522;27.456;2023-03-07T08:28:29;100751.09;;;23.58;34.66
50250;BME280;36133;42.522;27.456;2023-03-07T08:31:09;100761.63;;;24.12;33.91
50250;BME280;36133;42.522;27.456;2023-03-07T08:33:39;100472.53;;;23.24;32.78
50250;BME280;36133;42.522;27.456;2023-03-07T08:36:08;100461.38;;;24.45;31.55
50250;BME280;36133;42.522;27.456;2023-03-07T08:38:34;100620.81;;;25.52;31.17
50250;BME280;36133;42.522;27.456;2023-03-07T08:41:04;100644.69;;;23.98;33.07
50250;BME280;36133;42.522;27.456;2023-03-07T08:43:35;100531.88;;;24.71;31.83
50250;BME280;36133;42.522;27.456;2023-03-07T08:46:09;100576.19;;;25.34;31.44
50250;BME280;36133;42.522;27.456;2023-03-07T08:48:50;100713.06;;;28.74;27.85
50250;BME280;36133;42.522;27.456;2023-03-07T08:51:18;100723.06;;;31.73;24.46
50250;BME280;36133;42.522;27.456;2023-03-07T08:53:44;100629.88;;;30.08;25.43
50250;BME280;36133;42.522;27.456;2023-03-07T08:56:12;100605.72;;;29.28;26.06
50250;BME280;36133;42.522;27.456;2023-03-07T08:58:38;100664.50;;;28.85;27.41
50250;BME280;36133;42.522;27.456;2023-03-07T09:01:05;100585.25;;;26.51;29.82
50250;BME280;36133;42.522;27.456;2023-03-07T09:03:31;100569.31;;;27.04;28.72
50250;BME280;36133;42.522;27.456;2023-03-07T09:05:57;100723.28;;;25.99;31.46
50250;BME280;36133;42.522;27.456;2023-03-07T09:08:22;100548.50;;;25.05;31.44
50250;BME280;36133;42.522;27.456;2023-03-07T09:10:48;100727.03;;;25.80;32.41
50250;BME280;36133;42.522;27.456;2023-03-07T09:13:21;100519.03;;;24.46;32.54
50250;BME280;36133;42.522;27.456;2023-03-07T09:15:46;100711.00;;;26.93;30.74
50250;BME280;36133;42.522;27.456;2023-03-07T09:18:12;100672.94;;;27.92;28.86
50250;BME280;36133;42.522;27.456;2023-03-07T09:20:37;100712.19;;;26.34;31.51
50250;BME280;36133;42.522;27.456;2023-03-07T09:23:04;100708.72;;;25.50;32.80
50250;BME280;36133;42.522;27.456;2023-03-07T09:25:30;100690.34;;;27.60;30.09
50250;BME280;36133;42.522;27.456;2023-03-07T09:27:55;100688.56;;;28.35;28.96
50250;BME280;36133;42.522;27.456;2023-03-07T09:30:24;100652.34;;;28.12;28.43
50250;BME280;36133;42.522;27.456;2023-03-07T09:33:04;100600.16;;;26.31;30.43
50250;BME280;36133;42.522;27.456;2023-03-07T09:35:33;100461.41;;;26.94;28.92
50250;BME280;36133;42.522;27.456;2023-03-07T09:37:59;100311.53;;;25.31;29.65
50250;BME280;36133;42.522;27.456;2023-03-07T09:40:34;100303.72;;;25.15;29.61
50250;BME280;36133;42.522;27.456;2023-03-07T09:43:02;100405.06;;;27.31;27.92
50250;BME280;36133;42.522;27.456;2023-03-07T09:49:16;100694.97;;;30.60;26.03
50250;BME280;36133;42.522;27.456;2023-03-07T09:51:44;100367.34;;;29.73;24.52
50250;BME280;36133;42.522;27.456;2023-03-07T09:54:33;100660.34;;;30.53;26.01
50250;BME280;36133;42.522;27.456;2023-03-07T09:57:04;100408.50;;;26.44;29.03
50250;BME280;36133;42.522;27.456;2023-03-07T09:59:38;100409.41;;;27.79;27.15
50250;BME280;36133;42.522;27.456;2023-03-07T10:05:10;100553.03;;;25.59;30.87
50250;BME280;36133;42.522;27.456;2023-03-07T10:07:38;100482.94;;;28.31;27.48
50250;BME280;36133;42.522;27.456;2023-03-07T10:10:11;100530.25;;;28.76;26.74
50250;BME280;36133;42.522;27.456;2023-03-07T10:18:08;100262.22;;;24.43;29.78
50250;BME280;36133;42.522;27.456;2023-03-07T10:24:07;100655.50;;;24.84;32.60
50250;BME280;36133;42.522;27.456;2023-03-07T10:26:49;100599.94;;;28.52;27.04
50250;BME280;36133;42.522;27.456;2023-03-07T10:29:23;100575.22;;;28.64;26.98
50250;BME280;36133;42.522;27.456;2023-03-07T10:32:02;100622.22;;;27.22;28.54
50250;BME280;36133;42.522;27.456;2023-03-07T10:34:30;100625.03;;;26.79;29.53
50250;BME280;36133;42.522;27.456;2023-03-07T10:37:33;100586.75;;;27.89;27.40
50250;BME280;36133;42.522;27.456;2023-03-07T10:40:35;100240.81;;;25.30;27.88
50250;BME280;36133;42.522;27.456;2023-03-07T10:43:26;100538.66;;;27.14;27.56
50250;BME280;36133;42.522;27.456;2023-03-07T10:45:55;100611.13;;;27.22;27.48
50250;BME280;36133;42.522;27.456;2023-03-07T10:48:23;100543.06;;;25.29;29.71
50250;BME280;36133;42.522;27.456;2023-03-07T10:53:55;100456.31;;;24.08;30.05
50250;BME280;36133;42.522;27.456;2023-03-07T10:56:21;100574.31;;;24.80;29.79
50250;BME280;36133;42.522;27.456;2023-03-07T11:01:25;100587.84;;;24.87;29.94
50250;BME280;36133;42.522;27.456;2023-03-07T11:03:59;100218.94;;;24.04;28.97
50250;BME280;36133;42.522;27.456;2023-03-07T11:06:35;100565.00;;;26.55;27.50
50250;BME280;36133;42.522;27.456;2023-03-07T11:11:50;100529.22;;;25.34;28.68
50250;BME280;36133;42.522;27.456;2023-03-07T11:14:16;100449.00;;;23.83;30.12
50250;BME280;36133;42.522;27.456;2023-03-07T11:16:55;100556.75;;;23.91;30.76
50250;BME280;36133;42.522;27.456;2023-03-07T11:19:35;100559.00;;;23.79;31.56
50250;BME280;36133;42.522;27.456;2023-03-07T11:22:03;100255.88;;;23.69;29.05
50250;BME280;36133;42.522;27.456;2023-03-07T11:24:36;100529.78;;;24.97;28.82
50250;BME280;36133;42.522;27.456;2023-03-07T11:27:02;100542.59;;;25.51;28.75
50250;BME280;36133;42.522;27.456;2023-03-07T11:29:28;100375.09;;;22.69;30.46
50250;BME280;36133;42.522;27.456;2023-03-07T11:32:02;100544.00;;;26.07;28.46
50250;BME280;36133;42.522;27.456;2023-03-07T11:34:57;100555.00;;;24.80;29.45
50250;BME280;36133;42.522;27.456;2023-03-07T11:50:31;100491.19;;;24.48;29.37
50250;BME280;36133;42.522;27.456;2023-03-07T12:04:52;100243.88;;;25.10;27.20
50250;BME280;36133;42.522;27.456;2023-03-07T12:07:34;100504.44;;;23.71;30.68
50250;BME280;36133;42.522;27.456;2023-03-07T12:13:02;100337.56;;;25.01;27.22
50250;BME280;36133;42.522;27.456;2023-03-07T12:16:10;100500.97;;;25.72;27.16
50250;BME280;36133;42.522;27.456;2023-03-07T12:24:03;100480.22;;;25.74;27.11
50250;BME280;36133;42.522;27.456;2023-03-07T12:32:24;100452.38;;;22.52;31.89
50250;BME280;36133;42.522;27.456;2023-03-07T12:37:34;100489.97;;;22.11;32.69
50250;BME280;36133;42.522;27.456;2023-03-07T12:42:43;100352.16;;;21.82;32.50
50250;BME280;36133;42.522;27.456;2023-03-07T12:45:18;100427.84;;;21.16;34.40
50250;BME280;36133;42.522;27.456;2023-03-07T12:47:56;100335.28;;;21.01;33.26
50250;BME280;36133;42.522;27.456;2023-03-07T13:01:36;100424.28;;;22.25;32.55
50250;BME280;36133;42.522;27.456;2023-03-07T13:04:33;100472.78;;;22.72;33.67
50250;BME280;36133;42.522;27.456;2023-03-07T13:07:16;100101.00;;;19.06;35.73
50250;BME280;36133;42.522;27.456;2023-03-07T13:09:49;100112.38;;;18.71;36.02
50250;BME280;36133;42.522;27.456;2023-03-07T13:12:27;100031.00;;;17.74;36.52
50250;BME280;36133;42.522;27.456;2023-03-07T13:14:56;100003.91;;;19.46;35.20
50250;BME280;36133;42.522;27.456;2023-03-07T13:24:59;100256.53;;;19.41;38.49
50250;BME280;36133;42.522;27.456;2023-03-07T13:30:24;100484.31;;;21.86;36.57
50250;BME280;36133;42.522;27.456;2023-03-07T13:41:46;100483.91;;;21.57;38.27
50250;BME280;36133;42.522;27.456;2023-03-07T13:44:37;100484.94;;;21.51;38.16
50250;BME280;36133;42.522;27.456;2023-03-07T13:47:03;100433.97;;;20.91;38.43
50250;BME280;36133;42.522;27.456;2023-03-07T13:49:38;100287.34;;;19.10;40.29
50250;BME280;36133;42.522;27.456;2023-03-07T13:52:23;100402.44;;;20.07;40.18
50250;BME280;36133;42.522;27.456;2023-03-07T13:54:51;100382.13;;;20.03;39.49
50250;BME280;36133;42.522;27.456;2023-03-07T13:57:39;100523.13;;;21.47;38.85
50250;BME280;36133;42.522;27.456;2023-03-07T14:00:36;100205.72;;;18.63;41.89
50250;BME280;36133;42.522;27.456;2023-03-07T14:03:23;100429.06;;;18.91;46.90
50250;BME280;36133;42.522;27.456;2023-03-07T14:05:50;100503.66;;;18.86;48.29
50250;BME280;36133;42.522;27.456;2023-03-07T14:08:16;100426.22;;;18.24;49.18
50250;BME280;36133;42.522;27.456;2023-03-07T14:10:44;100250.38;;;16.99;50.59
50250;BME280;36133;42.522;27.456;2023-03-07T14:13:59;100460.94;;;17.71;53.66
50250;BME280;36133;42.522;27.456;2023-03-07T14:17:12;100061.09;;;15.68;52.03
50250;BME280;36133;42.522;27.456;2023-03-07T14:20:06;100508.75;;;17.27;57.05
50250;BME280;36133;42.522;27.456;2023-03-07T14:25:32;100512.91;;;18.28;55.38
50250;BME280;36133;42.522;27.456;2023-03-07T14:28:00;100319.25;;;17.58;53.28
50250;BME280;36133;42.522;27.456;2023-03-07T14:30:29;100338.09;;;18.16;52.38
50250;BME280;36133;42.522;27.456;2023-03-07T14:32:59;100028.53;;;15.61;52.70
50250;BME280;36133;42.522;27.456;2023-03-07T14:35:45;100350.09;;;17.58;50.85
50250;BME280;36133;42.522;27.456;2023-03-07T14:38:31;100209.63;;;16.57;51.59
50250;BME280;36133;42.522;27.456;2023-03-07T14:52:11;100306.44;;;16.36;55.26
50250;BME280;36133;42.522;27.456;2023-03-07T14:54:37;100128.81;;;15.99;54.46
50250;BME280;36133;42.522;27.456;2023-03-07T14:57:03;100499.28;;;18.57;53.36
50250;BME280;36133;42.522;27.456;2023-03-07T14:59:29;100141.84;;;17.13;51.73
50250;BME280;36133;42.522;27.456;2023-03-07T15:01:56;100513.03;;;17.35;56.28
50250;BME280;36133;42.522;27.456;2023-03-07T15:04:30;100336.50;;;15.88;59.08
50250;BME280;36133;42.522;27.456;2023-03-07T15:07:01;100348.13;;;16.37;57.94
50250;BME280;36133;42.522;27.456;2023-03-07T15:09:32;100462.50;;;17.20;57.20